Time;durP1;ratioP1;P1;durP2;ratioP2;P2;SDS_P1;SDS_P2;PMS_P1;PMS_P2;Temp;Humidity;BMP_temperature;BMP_pressure;BME280_temperature;BME280_humidity;BME280_pressure;Samples;Min_cycle;Max_cycle;Signal;HPM_P1;HPM_P2
2021/07/25 00:02:16;;;;;;;0.10;0.10;;;18.10;99.90;;;;;;4858476;29;20036;-76
2021/07/25 00:04:42;;;;;;;1.75;1.65;;;18.20;99.90;;;;;;4859742;29;20045;-77
2021/07/25 00:07:08;;;;;;;0.10;0.10;;;18.20;99.90;;;;;;4859753;29;20104;-75
2021/07/25 00:09:35;;;;;;;1.15;0.60;;;18.10;99.90;;;;;;4859769;29;20025;-76
2021/07/25 00:12:00;;;;;;;0.35;0.35;;;18.00;99.90;;;;;;4858323;29;20486;-75
2021/07/25 00:14:26;;;;;;;1.95;1.27;;;17.80;99.90;;;;;;4858641;29;20033;-75
2021/07/25 00:16:52;;;;;;;1.85;0.73;;;17.80;99.90;;;;;;4859815;29;20285;-75
2021/07/25 00:19:17;;;;;;;0.38;0.38;;;17.80;99.90;;;;;;4859530;29;20030;-75
2021/07/25 00:21:43;;;;;;;1.35;1.33;;;17.80;99.90;;;;;;4859378;29;20026;-76
2021/07/25 00:24:09;;;;;;;0.10;0.10;;;17.90;99.90;;;;;;4859680;29;20030;-76
2021/07/25 00:26:38;;;;;;;0.05;0.05;;;18.10;99.90;;;;;;4858528;29;20021;-77
2021/07/25 00:29:05;;;;;;;0.00;0.00;;;18.20;99.90;;;;;;4858387;29;20128;-76
2021/07/25 00:31:33;;;;;;;0.20;0.20;;;18.30;99.90;;;;;;4858066;29;20558;-77
2021/07/25 00:33:58;;;;;;;0.00;0.00;;;18.30;99.90;;;;;;4861824;29;20072;-76
2021/07/25 00:36:26;;;;;;;0.00;0.00;;;18.20;99.90;;;;;;4862131;29;20057;-76
2021/07/25 00:38:51;;;;;;;0.20;0.20;;;18.40;99.90;;;;;;4862036;29;20036;-76
2021/07/25 00:41:19;;;;;;;0.20;0.20;;;18.30;99.90;;;;;;4863054;29;20029;-77
2021/07/25 00:43:46;;;;;;;0.05;0.05;;;18.20;99.90;;;;;;4863177;29;20038;-75
2021/07/25 00:46:13;;;;;;;0.35;0.35;;;18.10;99.90;;;;;;4863085;29;20029;-76
2021/07/25 00:48:39;;;;;;;0.55;0.55;;;17.90;99.90;;;;;;4861814;29;20093;-76
2021/07/25 00:51:05;;;;;;;1.33;0.68;;;17.80;99.90;;;;;;4861808;29;20037;-76
2021/07/25 00:53:34;;;;;;;0.20;0.20;;;18.00;99.90;;;;;;4862843;29;20037;-76
2021/07/25 00:56:02;;;;;;;0.17;0.17;;;18.00;99.90;;;;;;4863125;29;20033;-76
2021/07/25 00:58:28;;;;;;;0.10;0.10;;;17.90;99.90;;;;;;4862899;29;20091;-75
2021/07/25 01:00:54;;;;;;;0.00;0.00;;;18.10;99.90;;;;;;4863313;29;20025;-73
2021/07/25 01:03:54;;;;;;;0.10;0.10;;;18.40;99.90;;;;;;4861337;29;20036;-73
2021/07/25 01:06:38;;;;;;;0.00;0.00;;;18.70;99.90;;;;;;4862816;29;20497;-73
2021/07/25 01:09:14;;;;;;;0.08;0.08;;;18.90;99.90;;;;;;4861499;29;20505;-73
2021/07/25 01:11:54;;;;;;;0.00;0.00;;;19.10;99.90;;;;;;4862467;29;20364;-74
2021/07/25 01:14:26;;;;;;;0.00;0.00;;;19.10;99.90;;;;;;4862702;29;20022;-74
2021/07/25 01:16:52;;;;;;;0.20;0.20;;;19.20;99.90;;;;;;4861341;29;20033;-74
2021/07/25 01:19:18;;;;;;;0.10;0.10;;;19.10;99.90;;;;;;4861308;29;20045;-73
2021/07/25 01:21:43;;;;;;;0.10;0.10;;;18.80;99.90;;;;;;4862704;29;20022;-73
2021/07/25 01:24:09;;;;;;;0.10;0.10;;;18.90;99.90;;;;;;4862452;29;20090;-73
2021/07/25 01:26:40;;;;;;;0.00;0.00;;;18.90;99.90;;;;;;4860936;29;20037;-73
2021/07/25 01:29:06;;;;;;;0.10;0.10;;;18.90;99.90;;;;;;4862329;29;20025;-74
2021/07/25 01:31:37;;;;;;;0.08;0.08;;;19.00;99.90;;;;;;4862216;29;20479;-74
2021/07/25 01:34:04;;;;;;;0.10;0.10;;;19.00;99.90;;;;;;4862681;29;20038;-74
2021/07/25 01:36:31;;;;;;;0.00;0.00;;;18.90;99.90;;;;;;4862485;29;20034;-74
2021/07/25 01:38:57;;;;;;;0.10;0.10;;;19.00;99.90;;;;;;4862177;29;20084;-74
2021/07/25 01:41:22;;;;;;;0.10;0.10;;;19.10;99.90;;;;;;4862226;29;20105;-74
2021/07/25 01:43:50;;;;;;;0.00;0.00;;;19.10;99.90;;;;;;4862027;29;20026;-73
2021/07/25 01:46:16;;;;;;;0.00;0.00;;;19.10;99.90;;;;;;4861216;29;20036;-73
2021/07/25 01:48:43;;;;;;;0.10;0.10;;;18.80;99.90;;;;;;4862053;29;20030;-73
2021/07/25 01:51:11;;;;;;;0.10;0.10;;;18.70;99.90;;;;;;4860757;29;20418;-73
2021/07/25 01:53:37;;;;;;;0.10;0.10;;;18.50;99.90;;;;;;4860650;29;20085;-73
2021/07/25 01:56:03;;;;;;;0.10;0.10;;;18.50;99.90;;;;;;4861998;29;20033;-73
2021/07/25 01:58:29;;;;;;;0.00;0.00;;;18.60;99.90;;;;;;4861914;29;20065;-73
2021/07/25 02:00:55;;;;;;;0.05;0.05;;;18.70;99.90;;;;;;4862036;29;20056;-74
2021/07/25 02:03:25;;;;;;;0.10;0.10;;;18.80;99.90;;;;;;4861768;29;20439;-73
2021/07/25 02:05:52;;;;;;;0.10;0.10;;;18.80;99.90;;;;;;4860574;29;20090;-73
2021/07/25 02:08:18;;;;;;;0.10;0.10;;;18.70;99.90;;;;;;4861748;29;20077;-73
2021/07/25 02:10:49;;;;;;;0.00;0.00;;;18.70;99.90;;;;;;4861653;29;20038;-74
2021/07/25 02:13:16;;;;;;;0.10;0.10;;;18.80;99.90;;;;;;4861399;29;20032;-74
2021/07/25 02:15:43;;;;;;;0.10;0.10;;;18.80;99.90;;;;;;4861623;29;20406;-74
2021/07/25 02:18:09;;;;;;;0.00;0.00;;;18.80;99.90;;;;;;4861569;29;20068;-73
2021/07/25 02:20:36;;;;;;;0.00;0.00;;;18.70;99.90;;;;;;4860271;29;20025;-74
2021/07/25 02:23:01;;;;;;;0.10;0.10;;;18.80;99.90;;;;;;4861123;29;20057;-73
2021/07/25 02:25:27;;;;;;;0.10;0.10;;;18.80;99.90;;;;;;4861448;29;20053;-73
2021/07/25 02:27:53;;;;;;;0.03;0.03;;;18.80;99.90;;;;;;4861490;29;20045;-73
2021/07/25 02:30:19;;;;;;;0.10;0.10;;;18.80;99.90;;;;;;4861396;29;20475;-73
2021/07/25 02:32:45;;;;;;;0.00;0.00;;;18.50;99.90;;;;;;4861431;29;20030;-73
2021/07/25 02:35:10;;;;;;;0.10;0.10;;;18.00;99.90;;;;;;4859619;29;20571;-73
2021/07/25 02:37:36;;;;;;;0.08;0.08;;;17.80;99.90;;;;;;4859794;29;20406;-74
2021/07/25 02:40:03;;;;;;;0.10;0.10;;;17.80;99.90;;;;;;4859992;29;20025;-73
2021/07/25 02:42:29;;;;;;;0.10;0.10;;;18.00;99.90;;;;;;4859568;29;20026;-73
2021/07/25 02:44:55;;;;;;;0.10;0.10;;;18.10;99.90;;;;;;4860993;29;20032;-73
2021/07/25 02:47:21;;;;;;;0.10;0.10;;;18.30;99.90;;;;;;4860980;29;20040;-73
2021/07/25 02:49:47;;;;;;;0.10;0.10;;;18.20;99.90;;;;;;4861363;29;20082;-74
2021/07/25 02:52:12;;;;;;;0.10;0.10;;;18.40;99.90;;;;;;4860952;29;20207;-74
2021/07/25 02:54:38;;;;;;;0.40;0.40;;;18.50;99.90;;;;;;4860758;29;20041;-74
2021/07/25 02:57:04;;;;;;;0.10;0.10;;;18.50;99.90;;;;;;4860827;29;20029;-73
2021/07/25 02:59:30;;;;;;;0.10;0.10;;;18.60;99.90;;;;;;4860833;29;20033;-73
2021/07/25 03:01:57;;;;;;;0.85;0.40;;;18.60;99.90;;;;;;4843942;29;20523;-74
2021/07/25 03:04:23;;;;;;;0.20;0.20;;;18.20;99.90;;;;;;4860585;29;20033;-73
2021/07/25 03:06:48;;;;;;;0.10;0.10;;;18.00;99.90;;;;;;4859732;29;20530;-74
2021/07/25 03:09:15;;;;;;;0.10;0.10;;;17.80;99.90;;;;;;4860780;29;20498;-73
2021/07/25 03:11:41;;;;;;;0.00;0.00;;;17.70;99.90;;;;;;4860488;29;20061;-73
2021/07/25 03:14:07;;;;;;;0.10;0.10;;;17.80;99.90;;;;;;4860487;29;20394;-73
2021/07/25 03:16:33;;;;;;;0.10;0.10;;;17.80;99.90;;;;;;4860640;29;20034;-73
2021/07/25 03:18:59;;;;;;;0.10;0.10;;;17.80;99.90;;;;;;4860426;29;20157;-73
2021/07/25 03:21:25;;;;;;;0.10;0.10;;;17.80;99.90;;;;;;4860365;29;20033;-74
2021/07/25 03:23:51;;;;;;;0.40;0.40;;;17.80;99.90;;;;;;4860329;29;20022;-73
2021/07/25 03:26:17;;;;;;;0.80;0.80;;;17.90;99.90;;;;;;4860455;29;20029;-74
2021/07/25 03:28:43;;;;;;;0.57;0.55;;;17.70;99.90;;;;;;4860288;29;20522;-74
2021/07/25 03:31:09;;;;;;;0.10;0.10;;;17.70;99.90;;;;;;4860184;29;20108;-73
2021/07/25 03:33:34;;;;;;;0.08;0.08;;;17.80;99.90;;;;;;4859991;29;20154;-74
2021/07/25 03:36:00;;;;;;;0.00;0.00;;;17.70;99.90;;;;;;4860053;29;20036;-74
2021/07/25 03:38:26;;;;;;;0.30;0.30;;;17.60;99.90;;;;;;4860035;29;20036;-74
2021/07/25 03:40:53;;;;;;;0.00;0.00;;;17.60;99.90;;;;;;4860176;29;20394;-74
2021/07/25 03:43:19;;;;;;;0.08;0.08;;;17.60;99.90;;;;;;4858553;29;20021;-74
2021/07/25 03:45:47;;;;;;;0.00;0.00;;;17.70;99.90;;;;;;4860016;29;20138;-74
2021/07/25 03:48:13;;;;;;;0.10;0.10;;;17.90;99.90;;;;;;4858933;29;20064;-73
2021/07/25 03:50:41;;;;;;;0.10;0.10;;;18.00;99.90;;;;;;4860001;29;20368;-74
2021/07/25 03:53:08;;;;;;;0.20;0.20;;;18.00;99.90;;;;;;4859711;29;20026;-74
2021/07/25 03:55:35;;;;;;;0.10;0.10;;;17.80;99.90;;;;;;4860017;29;20514;-73
2021/07/25 03:58:02;;;;;;;0.35;0.35;;;17.80;99.90;;;;;;4858661;29;20040;-73
2021/07/25 04:00:28;;;;;;;0.28;0.15;;;17.50;99.90;;;;;;4858813;29;20320;-73
2021/07/25 04:02:54;;;;;;;0.55;0.55;;;17.50;99.90;;;;;;4859696;29;20048;-73
2021/07/25 04:05:20;;;;;;;2.35;0.30;;;17.30;99.90;;;;;;4859857;29;20026;-74
2021/07/25 04:07:46;;;;;;;1.27;0.82;;;17.20;99.90;;;;;;4859299;29;20038;-74
2021/07/25 04:10:12;;;;;;;0.68;0.68;;;17.30;99.90;;;;;;4858536;29;20398;-74
2021/07/25 04:12:37;;;;;;;0.08;0.08;;;17.20;99.90;;;;;;4859601;29;20034;-74
2021/07/25 04:15:04;;;;;;;0.15;0.15;;;17.30;99.90;;;;;;4859611;29;20038;-73
2021/07/25 04:17:30;;;;;;;0.35;0.35;;;17.20;99.90;;;;;;4859687;29;20030;-74
2021/07/25 04:19:56;;;;;;;0.10;0.10;;;17.30;99.90;;;;;;4858374;29;20517;-74
2021/07/25 04:22:22;;;;;;;2.05;0.47;;;17.30;99.90;;;;;;4859540;29;20034;-74
2021/07/25 04:24:47;;;;;;;0.10;0.10;;;17.20;99.90;;;;;;4858335;29;20025;-73
2021/07/25 04:27:15;;;;;;;0.00;0.00;;;17.10;99.90;;;;;;4858328;29;20025;-73
2021/07/25 04:29:41;;;;;;;0.00;0.00;;;17.10;99.90;;;;;;4858237;29;20040;-73
2021/07/25 04:32:07;;;;;;;0.00;0.00;;;17.20;99.90;;;;;;4859455;29;20363;-73
2021/07/25 04:34:33;;;;;;;0.10;0.10;;;17.30;99.90;;;;;;4859465;29;20029;-73
2021/07/25 04:37:00;;;;;;;0.10;0.10;;;17.40;99.90;;;;;;4859166;29;20043;-73
2021/07/25 04:39:26;;;;;;;0.47;0.47;;;17.40;99.90;;;;;;4858258;29;20034;-73
2021/07/25 04:41:56;;;;;;;0.10;0.10;;;17.20;99.90;;;;;;4859476;29;20034;-73
2021/07/25 04:44:31;;;;;;;1.15;0.30;;;17.10;99.90;;;;;;4858210;29;20026;-73
2021/07/25 04:47:02;;;;;;;0.90;0.90;;;17.20;99.90;;;;;;4859462;29;20059;-74
2021/07/25 04:50:13;;;;;;;0.03;0.03;;;17.30;99.90;;;;;;4859441;29;20040;-74
2021/07/25 04:52:41;;;;;;;0.10;0.10;;;17.40;99.90;;;;;;4847402;29;20045;-73
2021/07/25 04:55:12;;;;;;;0.30;0.30;;;17.50;99.90;;;;;;4859338;29;20032;-73
2021/07/25 04:57:42;;;;;;;0.10;0.10;;;17.70;99.90;;;;;;4859384;29;20032;-73
2021/07/25 05:00:13;;;;;;;0.43;0.32;;;17.70;99.90;;;;;;4858066;29;20478;-73
2021/07/25 05:02:41;;;;;;;0.30;0.30;;;17.70;99.90;;;;;;4859252;29;20094;-74
2021/07/25 05:05:08;;;;;;;0.17;0.17;;;17.50;99.90;;;;;;4859243;29;20030;-74
2021/07/25 05:07:39;;;;;;;0.10;0.10;;;17.50;99.90;;;;;;4858180;29;20025;-74
2021/07/25 05:10:06;;;;;;;0.52;0.52;;;17.50;99.90;;;;;;4859287;29;20018;-74
2021/07/25 05:12:36;;;;;;;0.32;0.32;;;17.40;99.90;;;;;;4859299;29;20065;-74
2021/07/25 05:15:04;;;;;;;1.08;1.05;;;17.40;99.90;;;;;;4857981;29;20068;-74
2021/07/25 05:17:53;;;;;;;0.35;0.35;;;17.40;99.90;;;;;;4859273;29;20502;-74
2021/07/25 05:20:21;;;;;;;1.17;0.65;;;17.50;99.90;;;;;;4861881;29;20441;-74
2021/07/25 05:23:03;;;;;;;0.45;0.45;;;17.50;99.90;;;;;;4862519;29;20373;-74
2021/07/25 05:25:30;;;;;;;;;;;17.60;99.90;;;;;;4861776;29;20030;-74
2021/07/25 05:27:56;;;;;;;0.70;0.70;;;17.70;99.90;;;;;;4861389;29;19960;-74
2021/07/25 05:30:24;;;;;;;0.10;0.10;;;17.90;99.90;;;;;;4860610;29;20116;-74
2021/07/25 05:32:51;;;;;;;0.10;0.10;;;17.90;99.90;;;;;;4862357;29;20030;-74
2021/07/25 05:35:17;;;;;;;1.00;0.95;;;18.00;99.90;;;;;;4889541;29;20482;-74
2021/07/25 05:37:44;;;;;;;0.10;0.10;;;18.10;99.90;;;;;;4862318;29;20490;-74
2021/07/25 05:40:11;;;;;;;0.00;0.00;;;18.10;99.90;;;;;;4861081;29;20030;-74
2021/07/25 05:42:38;;;;;;;0.70;0.65;;;18.20;99.90;;;;;;4862019;29;20026;-74
2021/07/25 05:45:07;;;;;;;0.75;0.63;;;18.20;99.90;;;;;;4861890;29;20033;-74
2021/07/25 05:47:34;;;;;;;0.10;0.10;;;18.30;99.90;;;;;;4865518;29;20454;-74
2021/07/25 05:49:59;;;;;;;0.10;0.10;;;18.50;99.90;;;;;;4879391;29;20460;-74
2021/07/25 05:52:25;;;;;;;0.08;0.08;;;18.60;99.90;;;;;;4880670;29;20053;-74
2021/07/25 05:54:51;;;;;;;0.75;0.60;;;18.80;99.90;;;;;;4879291;29;20026;-74
2021/07/25 05:57:18;;;;;;;0.20;0.20;;;18.90;99.90;;;;;;4880586;29;20104;-74
2021/07/25 05:59:44;;;;;;;0.20;0.20;;;19.00;99.90;;;;;;4879120;29;20132;-74
2021/07/25 06:02:09;;;;;;;0.00;0.00;;;19.10;99.90;;;;;;4867143;29;20112;-74
2021/07/25 06:04:35;;;;;;;0.20;0.20;;;19.30;99.90;;;;;;4863732;29;20108;-74
2021/07/25 06:07:01;;;;;;;0.10;0.10;;;19.30;99.90;;;;;;4880499;29;20025;-74
2021/07/25 06:09:27;;;;;;;1.02;0.93;;;19.50;99.90;;;;;;4876093;29;20021;-74
2021/07/25 06:11:52;;;;;;;0.00;0.00;;;19.60;99.90;;;;;;4844895;29;20399;-74
2021/07/25 06:14:18;;;;;;;0.57;0.57;;;19.60;99.90;;;;;;4861132;29;20602;-74
2021/07/25 06:16:44;;;;;;;0.03;0.03;;;19.60;99.90;;;;;;4861494;29;20028;-74
2021/07/25 06:19:10;;;;;;;0.85;0.85;;;19.70;99.90;;;;;;4861529;29;20044;-74
2021/07/25 06:21:37;;;;;;;0.10;0.10;;;19.80;99.90;;;;;;4861506;29;20040;-74
2021/07/25 06:24:03;;;;;;;0.35;0.35;;;19.90;99.90;;;;;;4861745;29;20034;-74
2021/07/25 06:26:29;;;;;;;0.10;0.10;;;19.90;99.90;;;;;;4860376;29;20066;-74
2021/07/25 06:28:55;;;;;;;1.75;0.43;;;20.00;99.90;;;;;;4860122;29;20104;-74
2021/07/25 06:31:21;;;;;;;0.10;0.10;;;20.10;99.90;;;;;;4860566;29;20101;-74
2021/07/25 06:33:46;;;;;;;0.20;0.20;;;20.20;99.90;;;;;;4861418;29;20040;-74
2021/07/25 06:36:13;;;;;;;0.10;0.10;;;20.30;99.90;;;;;;4877969;29;20488;-74
2021/07/25 06:38:40;;;;;;;0.20;0.20;;;20.30;99.90;;;;;;4862947;29;20021;-74
2021/07/25 06:41:08;;;;;;;0.95;0.60;;;20.30;99.90;;;;;;4878576;29;20036;-74
2021/07/25 06:43:34;;;;;;;0.08;0.08;;;20.40;99.90;;;;;;4879501;29;20025;-74
2021/07/25 06:46:00;;;;;;;0.10;0.10;;;20.50;99.90;;;;;;4879615;29;20025;-74
2021/07/25 06:48:31;;;;;;;0.10;0.10;;;20.80;99.90;;;;;;4879744;29;20110;-74
2021/07/25 06:50:58;;;;;;;0.20;0.20;;;21.00;99.90;;;;;;4879521;29;20033;-74
2021/07/25 06:53:26;;;;;;;0.00;0.00;;;20.80;99.90;;;;;;4879547;29;20051;-74
2021/07/25 06:55:53;;;;;;;0.00;0.00;;;20.80;99.90;;;;;;4862851;29;20084;-74
2021/07/25 06:58:20;;;;;;;0.00;0.00;;;21.00;99.90;;;;;;4879486;29;20064;-74
2021/07/25 07:00:45;;;;;;;0.00;0.00;;;21.20;99.90;;;;;;4879456;29;20025;-74
2021/07/25 07:03:13;;;;;;;0.10;0.10;;;21.20;99.90;;;;;;4878074;29;20040;-74
2021/07/25 07:05:38;;;;;;;0.10;0.10;;;21.40;99.90;;;;;;4879435;29;20025;-74
2021/07/25 07:08:06;;;;;;;0.10;0.10;;;21.60;99.90;;;;;;4878099;29;20037;-74
2021/07/25 07:10:34;;;;;;;0.00;0.00;;;21.80;99.90;;;;;;4879258;29;20033;-74
2021/07/25 07:13:06;;;;;;;0.00;0.00;;;21.90;99.90;;;;;;4879315;29;20120;-74
2021/07/25 07:15:34;;;;;;;0.52;0.52;;;22.10;99.90;;;;;;4879230;29;20033;-74
2021/07/25 07:18:00;;;;;;;0.00;0.00;;;22.00;99.90;;;;;;4879101;29;20116;-74
2021/07/25 07:20:26;;;;;;;0.00;0.00;;;22.10;99.90;;;;;;4877846;29;20031;-74
2021/07/25 07:23:04;;;;;;;0.10;0.10;;;22.10;99.90;;;;;;4879016;29;20061;-74
2021/07/25 07:25:50;;;;;;;0.00;0.00;;;22.10;99.90;;;;;;4878930;29;20021;-74
2021/07/25 07:28:18;;;;;;;0.00;0.00;;;22.20;99.90;;;;;;4877659;29;20033;-74
2021/07/25 07:30:47;;;;;;;0.08;0.08;;;21.90;99.90;;;;;;4879142;29;20028;-74
2021/07/25 07:33:21;;;;;;;0.73;0.73;;;21.90;99.90;;;;;;4877942;29;20393;-74
2021/07/25 07:35:47;;;;;;;0.10;0.10;;;22.10;99.90;;;;;;4878239;29;20120;-74
2021/07/25 07:38:14;;;;;;;0.00;0.00;;;22.40;99.90;;;;;;4878698;29;20033;-74
2021/07/25 07:40:43;;;;;;;0.00;0.00;;;22.40;99.90;;;;;;4878764;29;20076;-74
2021/07/25 07:43:10;;;;;;;0.00;0.00;;;22.40;99.90;;;;;;4877686;29;20021;-74
2021/07/25 07:45:38;;;;;;;0.25;0.25;;;22.50;99.90;;;;;;4877334;29;20512;-74
2021/07/25 07:48:04;;;;;;;0.00;0.00;;;22.60;99.50;;;;;;4878706;29;20108;-74
2021/07/25 07:50:30;;;;;;;0.00;0.00;;;22.80;99.90;;;;;;4878462;29;20057;-74
2021/07/25 07:52:57;;;;;;;0.00;0.00;;;22.90;99.90;;;;;;4878273;29;20064;-74
2021/07/25 07:55:23;;;;;;;0.75;0.47;;;23.20;99.30;;;;;;4877466;29;20055;-74
2021/07/25 07:57:49;;;;;;;0.00;0.00;;;23.30;98.50;;;;;;4877210;29;20490;-74
2021/07/25 08:00:15;;;;;;;0.03;0.03;;;23.40;98.00;;;;;;4877214;29;20024;-74
2021/07/25 08:02:41;;;;;;;0.10;0.10;;;23.20;98.00;;;;;;4861551;29;20036;-74
2021/07/25 08:05:08;;;;;;;0.30;0.30;;;23.00;99.50;;;;;;4878216;29;20064;-74
2021/07/25 08:07:33;;;;;;;0.00;0.00;;;22.90;99.80;;;;;;4870449;29;20021;-74
2021/07/25 08:09:59;;;;;;;0.20;0.20;;;22.90;99.80;;;;;;4878173;29;20028;-74
2021/07/25 08:12:25;;;;;;;0.00;0.00;;;23.20;99.80;;;;;;4876790;29;20028;-74
2021/07/25 08:14:51;;;;;;;0.03;0.03;;;23.10;99.70;;;;;;4875788;29;20401;-74
2021/07/25 08:17:17;;;;;;;0.00;0.00;;;23.00;99.90;;;;;;4859650;29;20025;-74
2021/07/25 08:19:42;;;;;;;0.40;0.40;;;23.20;99.20;;;;;;4858262;29;20120;-74
2021/07/25 08:22:09;;;;;;;0.20;0.20;;;23.50;98.20;;;;;;4858815;29;20496;-74
2021/07/25 08:24:38;;;;;;;0.20;0.20;;;23.60;98.10;;;;;;4868289;29;20025;-74
2021/07/25 08:27:08;;;;;;;0.00;0.00;;;23.70;96.30;;;;;;4876779;29;20029;-74
2021/07/25 08:29:34;;;;;;;0.05;0.05;;;23.60;97.40;;;;;;4877027;29;20029;-74
2021/07/25 08:32:00;;;;;;;0.00;0.00;;;23.50;96.30;;;;;;4875267;29;20033;-74
2021/07/25 08:34:26;;;;;;;0.10;0.10;;;23.60;97.50;;;;;;4877677;29;20033;-74
2021/07/25 08:36:52;;;;;;;0.00;0.00;;;23.70;97.80;;;;;;4877920;29;20033;-74
2021/07/25 08:39:19;;;;;;;1.17;0.65;;;23.70;97.30;;;;;;4861076;29;20033;-74
2021/07/25 08:41:48;;;;;;;0.00;0.00;;;23.60;98.20;;;;;;4876434;29;20032;-74
2021/07/25 08:44:37;;;;;;;0.20;0.20;;;23.70;97.60;;;;;;4878003;29;20025;-74
2021/07/25 08:47:11;;;;;;;0.00;0.00;;;23.40;97.50;;;;;;4876729;29;20033;-74
2021/07/25 08:49:47;;;;;;;0.00;0.00;;;23.20;99.20;;;;;;4877872;29;20032;-74
2021/07/25 08:52:16;;;;;;;0.00;0.00;;;23.30;99.40;;;;;;4876688;29;20406;-74
2021/07/25 08:54:43;;;;;;;0.00;0.00;;;23.40;96.90;;;;;;4879909;29;20077;-74
2021/07/25 08:57:14;;;;;;;0.22;0.22;;;23.40;97.60;;;;;;4881459;29;20021;-74
2021/07/25 08:59:45;;;;;;;0.08;0.08;;;23.30;98.30;;;;;;4881593;29;20116;-74
2021/07/25 09:02:30;;;;;;;0.03;0.03;;;23.50;97.80;;;;;;4870742;29;20414;-74
2021/07/25 09:04:58;;;;;;;0.75;0.10;;;23.30;97.60;;;;;;4862849;29;20029;-74
2021/07/25 09:07:29;;;;;;;0.00;0.00;;;23.40;96.80;;;;;;4880248;29;20039;-74
2021/07/25 09:10:00;;;;;;;0.00;0.00;;;23.40;96.90;;;;;;4861459;29;20045;-74
2021/07/25 09:12:28;;;;;;;0.00;0.00;;;23.30;98.50;;;;;;4862452;29;20041;-74
2021/07/25 09:14:56;;;;;;;0.45;0.43;;;23.30;97.10;;;;;;4861354;29;20056;-74
2021/07/25 09:17:23;;;;;;;2.72;2.50;;;23.20;97.90;;;;;;4862018;29;20092;-74
2021/07/25 09:20:13;;;;;;;0.00;0.00;;;23.20;99.00;;;;;;4862517;29;20022;-74
2021/07/25 09:22:53;;;;;;;0.10;0.10;;;23.30;98.80;;;;;;4850987;29;20030;-74
2021/07/25 09:25:21;;;;;;;0.30;0.20;;;23.30;98.30;;;;;;4865390;29;20508;-74
2021/07/25 09:27:48;;;;;;;0.17;0.17;;;23.30;98.90;;;;;;4873059;29;20017;-74
2021/07/25 09:30:20;;;;;;;1.27;0.57;;;23.20;98.50;;;;;;4879627;29;20037;-74
2021/07/25 09:32:46;;;;;;;0.00;0.00;;;23.10;98.40;;;;;;4880701;29;20059;-74
2021/07/25 09:35:34;;;;;;;0.00;0.00;;;23.10;99.30;;;;;;4868637;29;20028;-74
2021/07/25 09:38:03;;;;;;;0.00;0.00;;;23.20;99.00;;;;;;4847263;29;20592;-74
2021/07/25 09:40:32;;;;;;;1.90;0.90;;;23.20;97.90;;;;;;4880783;29;20084;-74
2021/07/25 09:43:06;;;;;;;0.80;0.80;;;23.10;98.50;;;;;;4880477;29;20445;-74
2021/07/25 09:45:32;;;;;;;0.00;0.00;;;23.00;98.00;;;;;;4879523;29;20017;-74
2021/07/25 09:48:09;;;;;;;0.15;0.15;;;22.90;98.20;;;;;;4880599;29;20064;-74
2021/07/25 09:50:35;;;;;;;0.47;0.38;;;23.10;98.80;;;;;;4879482;29;20036;-74
2021/07/25 09:53:01;;;;;;;0.00;0.00;;;23.10;98.90;;;;;;4880308;29;20029;-74
2021/07/25 09:55:31;;;;;;;0.00;0.00;;;23.00;98.60;;;;;;4880440;29;20036;-74
2021/07/25 09:57:58;;;;;;;0.00;0.00;;;22.90;97.40;;;;;;4880313;29;20055;-74
2021/07/25 10:00:43;;;;;;;0.70;0.70;;;23.00;97.30;;;;;;4880599;29;20032;-74
2021/07/25 10:03:18;;;;;;;0.10;0.10;;;23.20;96.30;;;;;;4864264;29;20498;-74
2021/07/25 10:05:44;;;;;;;0.80;0.25;;;23.40;96.30;;;;;;4861050;29;20071;-74
2021/07/25 10:08:21;;;;;;;0.85;0.60;;;23.70;95.10;;;;;;4867172;29;20048;-74
2021/07/25 10:10:51;;;;;;;1.83;1.20;;;24.00;93.60;;;;;;4880308;29;20029;-74
2021/07/25 10:13:23;;;;;;;0.43;0.10;;;24.10;92.60;;;;;;4878762;29;20051;-74
2021/07/25 10:15:59;;;;;;;2.63;1.02;;;24.00;92.10;;;;;;4880296;29;20116;-74
2021/07/25 10:18:27;;;;;;;0.00;0.00;;;23.90;92.10;;;;;;4878891;29;20048;-74
2021/07/25 10:20:57;;;;;;;0.00;0.00;;;24.20;92.90;;;;;;4868603;29;20558;-74
2021/07/25 10:23:43;;;;;;;0.00;0.00;;;24.20;92.60;;;;;;4860765;29;20107;-74
2021/07/25 10:26:11;;;;;;;0.00;0.00;;;24.50;92.30;;;;;;4860553;29;20033;-74
2021/07/25 10:28:40;;;;;;;0.43;0.20;;;25.10;90.50;;;;;;4861347;29;20037;-74
2021/07/25 10:31:07;;;;;;;0.55;0.40;;;25.50;86.30;;;;;;4861243;29;20406;-74
2021/07/25 10:33:35;;;;;;;0.45;0.45;;;25.60;83.40;;;;;;4869090;29;20064;-74
2021/07/25 10:36:03;;;;;;;0.70;0.70;;;25.60;81.20;;;;;;4879772;29;20029;-74
2021/07/25 10:38:29;;;;;;;0.00;0.00;;;25.70;82.00;;;;;;4878327;29;20036;-74
2021/07/25 10:40:56;;;;;;;11.80;2.25;;;25.90;81.80;;;;;;4879815;29;20029;-74
2021/07/25 10:43:25;;;;;;;0.00;0.00;;;25.60;82.00;;;;;;4879598;29;20021;-74
2021/07/25 10:46:17;;;;;;;0.10;0.10;;;25.20;82.90;;;;;;4878361;29;20049;-74
2021/07/25 10:48:59;;;;;;;0.00;0.00;;;24.90;85.60;;;;;;4879635;29;20035;-74
2021/07/25 10:51:25;;;;;;;0.00;0.00;;;24.80;87.50;;;;;;4879440;29;20028;-74
2021/07/25 10:53:50;;;;;;;0.65;0.65;;;24.50;86.60;;;;;;4879397;29;20044;-74
2021/07/25 10:56:16;;;;;;;0.00;0.00;;;24.40;88.60;;;;;;4878239;29;20025;-74
2021/07/25 10:58:54;;;;;;;0.00;0.00;;;24.30;88.30;;;;;;4879304;29;20033;-75
2021/07/25 11:01:43;;;;;;;0.77;0.55;;;24.10;89.90;;;;;;4878066;29;20521;-74
2021/07/25 11:04:09;;;;;;;0.00;0.00;;;23.90;90.90;;;;;;4878064;29;20025;-74
2021/07/25 11:06:36;;;;;;;16.67;4.38;;;23.90;91.30;;;;;;4879378;29;20397;-74
2021/07/25 11:09:02;;;;;;;0.10;0.10;;;24.20;90.20;;;;;;4862496;29;20037;-74
2021/07/25 11:11:39;;;;;;;1.20;0.82;;;24.20;90.00;;;;;;4860415;29;20489;-74
2021/07/25 11:14:06;;;;;;;1.30;0.90;;;24.10;89.50;;;;;;4874682;29;20029;-75
2021/07/25 11:16:32;;;;;;;0.10;0.10;;;24.00;90.10;;;;;;4878806;29;20094;-75
2021/07/25 11:19:08;;;;;;;0.57;0.57;;;23.90;91.00;;;;;;4879019;29;20029;-74
2021/07/25 11:21:43;;;;;;;0.00;0.00;;;23.80;91.10;;;;;;4862148;29;20071;-75
2021/07/25 11:24:18;;;;;;;0.15;0.15;;;23.80;91.80;;;;;;4878920;29;20025;-74
2021/07/25 11:26:48;;;;;;;0.00;0.00;;;23.90;91.50;;;;;;4877868;29;20032;-75
2021/07/25 11:29:33;;;;;;;0.40;0.30;;;24.00;91.40;;;;;;4877746;29;20394;-75
2021/07/25 11:32:03;;;;;;;0.00;0.00;;;24.20;91.10;;;;;;4877711;29;20029;-75
2021/07/25 11:34:36;;;;;;;0.38;0.25;;;24.40;91.60;;;;;;4866294;29;20375;-75
2021/07/25 11:37:08;;;;;;;0.22;0.22;;;24.30;90.80;;;;;;4857652;29;20395;-75
2021/07/25 11:39:35;;;;;;;0.20;0.20;;;24.40;90.90;;;;;;4866229;29;20037;-75
2021/07/25 11:42:07;;;;;;;0.20;0.20;;;24.30;90.90;;;;;;4855437;29;20029;-75
2021/07/25 11:44:33;;;;;;;0.10;0.10;;;24.50;91.20;;;;;;4860173;29;20049;-75
2021/07/25 11:47:03;;;;;;;0.75;0.08;;;24.80;90.10;;;;;;4860030;29;20033;-75
2021/07/25 11:49:29;;;;;;;10.68;2.45;;;25.10;88.30;;;;;;4859873;29;20033;-75
2021/07/25 11:52:03;;;;;;;0.05;0.05;;;25.00;87.40;;;;;;4859782;29;20038;-75
2021/07/25 11:54:39;;;;;;;0.90;0.57;;;25.20;88.60;;;;;;4857595;29;20375;-75
2021/07/25 11:57:14;;;;;;;2.08;1.95;;;25.20;87.40;;;;;;4860027;29;20112;-75
2021/07/25 12:00:01;;;;;;;0.50;0.45;;;25.30;86.80;;;;;;4858585;29;20497;-75
2021/07/25 12:02:33;;;;;;;0.00;0.00;;;25.30;88.20;;;;;;4858706;29;20034;-75
2021/07/25 12:05:00;;;;;;;0.10;0.10;;;24.70;90.00;;;;;;4858636;29;20101;-75
2021/07/25 12:07:36;;;;;;;0.10;0.10;;;24.40;90.10;;;;;;4859814;29;20025;-76
2021/07/25 12:10:04;;;;;;;0.77;0.60;;;24.10;90.60;;;;;;4859887;29;20030;-75
2021/07/25 12:12:36;;;;;;;0.00;0.00;;;24.00;92.80;;;;;;4858379;29;20022;-75
2021/07/25 12:15:04;;;;;;;0.47;0.30;;;24.00;94.40;;;;;;4857554;29;20030;-75
2021/07/25 12:17:44;;;;;;;0.10;0.10;;;23.70;95.50;;;;;;4858373;29;20036;-75
2021/07/25 12:20:21;;;;;;;0.32;0.32;;;23.60;95.80;;;;;;4859516;29;20037;-75
2021/07/25 12:22:51;;;;;;;0.03;0.03;;;23.60;97.70;;;;;;4858343;29;20037;-75
2021/07/25 12:25:17;;;;;;;0.20;0.20;;;23.70;99.30;;;;;;4858098;29;20490;-75
2021/07/25 12:27:46;;;;;;;0.00;0.00;;;23.60;99.90;;;;;;4857690;29;20410;-75
2021/07/25 12:30:17;;;;;;;0.05;0.05;;;23.60;99.90;;;;;;4862410;29;20031;-75
2021/07/25 12:32:44;;;;;;;0.00;0.00;;;23.60;99.90;;;;;;4862581;29;20108;-75
2021/07/25 12:35:13;;;;;;;0.00;0.00;;;23.70;99.90;;;;;;4881189;29;20040;-75
2021/07/25 12:37:50;;;;;;;0.25;0.25;;;23.80;99.90;;;;;;4880590;29;20501;-74
2021/07/25 12:40:23;;;;;;;0.47;0.35;;;23.70;99.90;;;;;;4881895;29;20393;-74
2021/07/25 12:42:56;;;;;;;0.47;0.47;;;23.60;99.90;;;;;;4881751;29;20036;-76
2021/07/25 12:45:28;;;;;;;0.13;0.13;;;23.40;99.90;;;;;;4880536;29;20033;-74
2021/07/25 12:48:12;;;;;;;;;;;23.30;99.90;;;;;;4882151;29;20033;-74
2021/07/25 12:50:45;;;;;;;0.08;0.08;;;23.30;99.90;;;;;;4881838;29;19907;-75
2021/07/25 12:53:17;;;;;;;0.10;0.10;;;23.40;99.90;;;;;;4880531;29;20557;-74
2021/07/25 12:55:48;;;;;;;0.08;0.08;;;23.30;99.90;;;;;;4865523;29;20040;-74
2021/07/25 12:58:14;;;;;;;0.15;0.15;;;23.30;99.90;;;;;;4862880;29;20033;-75